Terminal Aerodrome Forecast
Issued by NWS

Home | Current Version | Previous Version | Text Only | Print | Product List | Glossary On
Versions: 1 2 3 4 5 6 7 8 9 10 11 12 13 14 15 16 17 18 19 20 21 22 23
000
FTUS43 KICT 230500
TAFSLN
TAF
KSLN 230520Z 2306/2406 17008KT P6SM OVC035
     FM230900 VRB05KT 5SM BR OVC007
     FM231300 VRB05KT 2SM BR OVC003
     FM231700 20010KT P6SM OVC015=

USA.gov is the U.S. government's official web portal to all federal, state and local government web resources and services.